sensor_id;sensor_type;location;lat;lon;timestamp;P1;durP1;ratioP1;P2;durP2;ratioP2
7160;SDS011;3622;53.576;9.978;2022-07-05T00:01:03;2.00;;;1.90;;
7160;SDS011;3622;53.576;9.978;2022-07-05T00:03:29;2.90;;;2.47;;
7160;SDS011;3622;53.576;9.978;2022-07-05T00:05:55;2.80;;;1.97;;
7160;SDS011;3622;53.576;9.978;2022-07-05T00:08:21;3.90;;;2.80;;
7160;SDS011;3622;53.576;9.978;2022-07-05T00:10:47;2.10;;;1.90;;
7160;SDS011;3622;53.576;9.978;2022-07-05T00:13:14;5.00;;;2.67;;
7160;SDS011;3622;53.576;9.978;2022-07-05T00:15:40;2.57;;;2.10;;
7160;SDS011;3622;53.576;9.978;2022-07-05T00:18:06;3.80;;;2.50;;
7160;SDS011;3622;53.576;9.978;2022-07-05T00:20:32;2.33;;;2.13;;
7160;SDS011;3622;53.576;9.978;2022-07-05T00:22:58;3.63;;;2.40;;
7160;SDS011;3622;53.576;9.978;2022-07-05T00:25:24;4.70;;;2.73;;
7160;SDS011;3622;53.576;9.978;2022-07-05T00:27:50;4.40;;;2.60;;
7160;SDS011;3622;53.576;9.978;2022-07-05T00:30:18;3.30;;;2.37;;
7160;SDS011;3622;53.576;9.978;2022-07-05T00:32:45;6.70;;;2.47;;
7160;SDS011;3622;53.576;9.978;2022-07-05T00:35:11;2.73;;;2.43;;
7160;SDS011;3622;53.576;9.978;2022-07-05T00:37:37;2.60;;;2.50;;
7160;SDS011;3622;53.576;9.978;2022-07-05T00:40:03;3.67;;;2.37;;
7160;SDS011;3622;53.576;9.978;2022-07-05T00:42:30;5.20;;;2.70;;
7160;SDS011;3622;53.576;9.978;2022-07-05T00:44:56;3.30;;;2.50;;
7160;SDS011;3622;53.576;9.978;2022-07-05T00:47:22;3.10;;;2.60;;
7160;SDS011;3622;53.576;9.978;2022-07-05T00:49:48;4.87;;;2.20;;
7160;SDS011;3622;53.576;9.978;2022-07-05T00:52:15;2.47;;;2.30;;
7160;SDS011;3622;53.576;9.978;2022-07-05T00:54:41;4.53;;;2.53;;
7160;SDS011;3622;53.576;9.978;2022-07-05T00:57:07;2.57;;;2.37;;
7160;SDS011;3622;53.576;9.978;2022-07-05T00:59:34;4.17;;;2.33;;
7160;SDS011;3622;53.576;9.978;2022-07-05T01:02:00;2.70;;;2.50;;
7160;SDS011;3622;53.576;9.978;2022-07-05T01:04:26;3.87;;;3.57;;
7160;SDS011;3622;53.576;9.978;2022-07-05T01:06:52;4.33;;;2.50;;
7160;SDS011;3622;53.576;9.978;2022-07-05T01:09:19;3.10;;;2.80;;
7160;SDS011;3622;53.576;9.978;2022-07-05T01:11:46;2.80;;;2.70;;
7160;SDS011;3622;53.576;9.978;2022-07-05T01:14:13;3.20;;;2.90;;
7160;SDS011;3622;53.576;9.978;2022-07-05T01:16:41;2.93;;;2.57;;
7160;SDS011;3622;53.576;9.978;2022-07-05T01:19:08;2.87;;;2.67;;
7160;SDS011;3622;53.576;9.978;2022-07-05T01:21:37;5.47;;;2.87;;
7160;SDS011;3622;53.576;9.978;2022-07-05T01:24:04;6.10;;;2.67;;
7160;SDS011;3622;53.576;9.978;2022-07-05T01:26:30;3.60;;;2.73;;
7160;SDS011;3622;53.576;9.978;2022-07-05T01:28:57;4.87;;;3.13;;
7160;SDS011;3622;53.576;9.978;2022-07-05T01:31:23;3.67;;;3.37;;
7160;SDS011;3622;53.576;9.978;2022-07-05T01:33:49;3.93;;;3.40;;
7160;SDS011;3622;53.576;9.978;2022-07-05T01:36:15;2.80;;;2.70;;
7160;SDS011;3622;53.576;9.978;2022-07-05T01:38:41;2.80;;;2.60;;
7160;SDS011;3622;53.576;9.978;2022-07-05T01:41:08;8.37;;;2.90;;
7160;SDS011;3622;53.576;9.978;2022-07-05T01:43:34;3.20;;;2.90;;
7160;SDS011;3622;53.576;9.978;2022-07-05T01:46:01;3.20;;;2.77;;
7160;SDS011;3622;53.576;9.978;2022-07-05T01:48:27;3.93;;;2.90;;
7160;SDS011;3622;53.576;9.978;2022-07-05T01:50:57;2.87;;;2.70;;
7160;SDS011;3622;53.576;9.978;2022-07-05T01:53:23;3.13;;;2.67;;
7160;SDS011;3622;53.576;9.978;2022-07-05T01:55:50;3.63;;;3.07;;
7160;SDS011;3622;53.576;9.978;2022-07-05T01:58:16;3.33;;;3.00;;
7160;SDS011;3622;53.576;9.978;2022-07-05T02:00:51;3.40;;;3.10;;
7160;SDS011;3622;53.576;9.978;2022-07-05T02:03:17;3.23;;;2.90;;
7160;SDS011;3622;53.576;9.978;2022-07-05T02:05:44;3.80;;;3.43;;
7160;SDS011;3622;53.576;9.978;2022-07-05T02:08:10;5.40;;;2.93;;
7160;SDS011;3622;53.576;9.978;2022-07-05T02:10:37;3.30;;;3.00;;
7160;SDS011;3622;53.576;9.978;2022-07-05T02:13:04;6.13;;;3.17;;
7160;SDS011;3622;53.576;9.978;2022-07-05T02:15:31;7.40;;;2.90;;
7160;SDS011;3622;53.576;9.978;2022-07-05T02:17:57;3.27;;;2.97;;
7160;SDS011;3622;53.576;9.978;2022-07-05T02:20:23;3.30;;;3.03;;
7160;SDS011;3622;53.576;9.978;2022-07-05T02:22:49;4.93;;;4.33;;
7160;SDS011;3622;53.576;9.978;2022-07-05T02:25:15;5.93;;;5.37;;
7160;SDS011;3622;53.576;9.978;2022-07-05T02:27:41;5.17;;;4.67;;
7160;SDS011;3622;53.576;9.978;2022-07-05T02:30:07;7.70;;;4.87;;
7160;SDS011;3622;53.576;9.978;2022-07-05T02:32:33;13.37;;;8.87;;
7160;SDS011;3622;53.576;9.978;2022-07-05T02:34:59;6.30;;;5.70;;
7160;SDS011;3622;53.576;9.978;2022-07-05T02:37:25;8.07;;;6.40;;
7160;SDS011;3622;53.576;9.978;2022-07-05T02:39:52;5.67;;;4.40;;
7160;SDS011;3622;53.576;9.978;2022-07-05T02:42:18;3.57;;;3.30;;
7160;SDS011;3622;53.576;9.978;2022-07-05T02:44:44;6.13;;;3.90;;
7160;SDS011;3622;53.576;9.978;2022-07-05T02:47:11;11.00;;;4.73;;
7160;SDS011;3622;53.576;9.978;2022-07-05T02:49:37;5.57;;;3.90;;
7160;SDS011;3622;53.576;9.978;2022-07-05T02:52:03;7.13;;;3.50;;
7160;SDS011;3622;53.576;9.978;2022-07-05T02:54:29;4.50;;;4.10;;
7160;SDS011;3622;53.576;9.978;2022-07-05T02:56:55;6.93;;;3.47;;
7160;SDS011;3622;53.576;9.978;2022-07-05T02:59:21;5.07;;;3.77;;
7160;SDS011;3622;53.576;9.978;2022-07-05T03:01:46;6.30;;;3.70;;
7160;SDS011;3622;53.576;9.978;2022-07-05T03:04:12;8.37;;;3.63;;
7160;SDS011;3622;53.576;9.978;2022-07-05T03:06:39;7.27;;;4.80;;
7160;SDS011;3622;53.576;9.978;2022-07-05T03:09:05;10.73;;;4.20;;
7160;SDS011;3622;53.576;9.978;2022-07-05T03:11:31;4.13;;;3.70;;
7160;SDS011;3622;53.576;9.978;2022-07-05T03:13:57;6.90;;;3.80;;
7160;SDS011;3622;53.576;9.978;2022-07-05T03:16:23;5.27;;;4.00;;
7160;SDS011;3622;53.576;9.978;2022-07-05T03:18:50;3.67;;;3.43;;
7160;SDS011;3622;53.576;9.978;2022-07-05T03:21:16;4.93;;;4.20;;
7160;SDS011;3622;53.576;9.978;2022-07-05T03:23:42;6.63;;;5.50;;
7160;SDS011;3622;53.576;9.978;2022-07-05T03:26:08;32.80;;;19.07;;
7160;SDS011;3622;53.576;9.978;2022-07-05T03:28:34;29.17;;;17.13;;
7160;SDS011;3622;53.576;9.978;2022-07-05T03:31:00;7.20;;;5.80;;
7160;SDS011;3622;53.576;9.978;2022-07-05T03:33:26;12.27;;;8.50;;
7160;SDS011;3622;53.576;9.978;2022-07-05T03:35:52;11.70;;;9.47;;
7160;SDS011;3622;53.576;9.978;2022-07-05T03:38:18;11.07;;;7.40;;
7160;SDS011;3622;53.576;9.978;2022-07-05T03:40:44;11.70;;;5.80;;
7160;SDS011;3622;53.576;9.978;2022-07-05T03:43:10;11.23;;;5.80;;
7160;SDS011;3622;53.576;9.978;2022-07-05T03:45:36;6.40;;;5.53;;
7160;SDS011;3622;53.576;9.978;2022-07-05T03:48:02;9.93;;;5.07;;
7160;SDS011;3622;53.576;9.978;2022-07-05T03:50:28;5.03;;;4.60;;
7160;SDS011;3622;53.576;9.978;2022-07-05T03:52:54;6.27;;;5.00;;
7160;SDS011;3622;53.576;9.978;2022-07-05T03:55:20;8.40;;;4.70;;
7160;SDS011;3622;53.576;9.978;2022-07-05T03:57:46;6.40;;;4.73;;
7160;SDS011;3622;53.576;9.978;2022-07-05T04:00:13;4.60;;;4.20;;
7160;SDS011;3622;53.576;9.978;2022-07-05T04:02:39;4.87;;;4.20;;
7160;SDS011;3622;53.576;9.978;2022-07-05T04:05:05;5.40;;;4.27;;
7160;SDS011;3622;53.576;9.978;2022-07-05T04:07:31;4.90;;;4.40;;
7160;SDS011;3622;53.576;9.978;2022-07-05T04:09:58;6.07;;;4.30;;
7160;SDS011;3622;53.576;9.978;2022-07-05T04:12:24;4.87;;;4.33;;
7160;SDS011;3622;53.576;9.978;2022-07-05T04:14:51;4.93;;;4.53;;
7160;SDS011;3622;53.576;9.978;2022-07-05T04:17:17;5.30;;;4.33;;
7160;SDS011;3622;53.576;9.978;2022-07-05T04:19:43;7.07;;;5.17;;
7160;SDS011;3622;53.576;9.978;2022-07-05T04:22:09;3.57;;;3.27;;
7160;SDS011;3622;53.576;9.978;2022-07-05T04:24:35;3.60;;;3.30;;
7160;SDS011;3622;53.576;9.978;2022-07-05T04:27:21;10.40;;;5.40;;
7160;SDS011;3622;53.576;9.978;2022-07-05T04:29:47;3.67;;;3.37;;
7160;SDS011;3622;53.576;9.978;2022-07-05T04:32:13;4.53;;;4.23;;
7160;SDS011;3622;53.576;9.978;2022-07-05T04:34:39;3.90;;;2.97;;
7160;SDS011;3622;53.576;9.978;2022-07-05T04:37:05;3.53;;;3.23;;
7160;SDS011;3622;53.576;9.978;2022-07-05T04:39:31;3.60;;;2.70;;
7160;SDS011;3622;53.576;9.978;2022-07-05T04:41:57;2.90;;;2.70;;
7160;SDS011;3622;53.576;9.978;2022-07-05T04:44:23;4.17;;;3.60;;
7160;SDS011;3622;53.576;9.978;2022-07-05T04:46:49;7.20;;;4.07;;
7160;SDS011;3622;53.576;9.978;2022-07-05T04:49:15;6.23;;;3.20;;
7160;SDS011;3622;53.576;9.978;2022-07-05T04:51:41;3.40;;;3.10;;
7160;SDS011;3622;53.576;9.978;2022-07-05T04:54:07;11.20;;;5.00;;
7160;SDS011;3622;53.576;9.978;2022-07-05T04:56:33;3.50;;;2.70;;
7160;SDS011;3622;53.576;9.978;2022-07-05T04:58:59;3.03;;;2.80;;
7160;SDS011;3622;53.576;9.978;2022-07-05T05:01:25;4.30;;;2.83;;
7160;SDS011;3622;53.576;9.978;2022-07-05T05:03:50;2.80;;;2.57;;
7160;SDS011;3622;53.576;9.978;2022-07-05T05:06:16;2.43;;;2.30;;
7160;SDS011;3622;53.576;9.978;2022-07-05T05:08:42;3.53;;;3.00;;
7160;SDS011;3622;53.576;9.978;2022-07-05T05:11:08;3.20;;;2.90;;
7160;SDS011;3622;53.576;9.978;2022-07-05T05:13:34;8.07;;;2.40;;
7160;SDS011;3622;53.576;9.978;2022-07-05T05:16:01;2.20;;;2.10;;
7160;SDS011;3622;53.576;9.978;2022-07-05T05:18:27;5.63;;;2.20;;
7160;SDS011;3622;53.576;9.978;2022-07-05T05:20:53;6.80;;;2.50;;
7160;SDS011;3622;53.576;9.978;2022-07-05T05:23:20;3.00;;;2.40;;
7160;SDS011;3622;53.576;9.978;2022-07-05T05:25:47;4.60;;;2.00;;
7160;SDS011;3622;53.576;9.978;2022-07-05T05:28:13;2.37;;;2.23;;
7160;SDS011;3622;53.576;9.978;2022-07-05T05:30:40;5.50;;;2.43;;
7160;SDS011;3622;53.576;9.978;2022-07-05T05:33:06;3.17;;;2.90;;
7160;SDS011;3622;53.576;9.978;2022-07-05T05:35:32;2.53;;;2.33;;
7160;SDS011;3622;53.576;9.978;2022-07-05T05:37:58;3.40;;;2.40;;
7160;SDS011;3622;53.576;9.978;2022-07-05T05:40:24;5.00;;;2.50;;
7160;SDS011;3622;53.576;9.978;2022-07-05T05:42:51;3.33;;;2.40;;
7160;SDS011;3622;53.576;9.978;2022-07-05T05:45:18;2.63;;;2.00;;
7160;SDS011;3622;53.576;9.978;2022-07-05T05:50:10;3.07;;;1.83;;
7160;SDS011;3622;53.576;9.978;2022-07-05T05:52:36;2.30;;;1.93;;
7160;SDS011;3622;53.576;9.978;2022-07-05T05:55:02;3.63;;;1.90;;
7160;SDS011;3622;53.576;9.978;2022-07-05T05:57:30;3.67;;;1.67;;
7160;SDS011;3622;53.576;9.978;2022-07-05T05:59:56;1.90;;;1.80;;
7160;SDS011;3622;53.576;9.978;2022-07-05T06:02:22;4.00;;;3.73;;
7160;SDS011;3622;53.576;9.978;2022-07-05T06:04:48;2.20;;;2.00;;
7160;SDS011;3622;53.576;9.978;2022-07-05T06:07:14;2.00;;;1.70;;
7160;SDS011;3622;53.576;9.978;2022-07-05T06:09:40;3.20;;;2.43;;
7160;SDS011;3622;53.576;9.978;2022-07-05T06:12:06;4.97;;;3.40;;
7160;SDS011;3622;53.576;9.978;2022-07-05T06:14:33;2.80;;;1.77;;
7160;SDS011;3622;53.576;9.978;2022-07-05T06:16:59;4.77;;;2.17;;
7160;SDS011;3622;53.576;9.978;2022-07-05T06:19:25;2.83;;;2.07;;
7160;SDS011;3622;53.576;9.978;2022-07-05T06:21:51;2.23;;;2.10;;
7160;SDS011;3622;53.576;9.978;2022-07-05T06:24:17;2.43;;;2.07;;
7160;SDS011;3622;53.576;9.978;2022-07-05T06:26:42;2.67;;;2.47;;
7160;SDS011;3622;53.576;9.978;2022-07-05T06:29:08;2.97;;;1.73;;
7160;SDS011;3622;53.576;9.978;2022-07-05T06:31:34;4.47;;;2.10;;
7160;SDS011;3622;53.576;9.978;2022-07-05T06:34:00;3.50;;;1.70;;
7160;SDS011;3622;53.576;9.978;2022-07-05T06:36:26;2.50;;;1.67;;
7160;SDS011;3622;53.576;9.978;2022-07-05T06:38:52;7.00;;;2.20;;
7160;SDS011;3622;53.576;9.978;2022-07-05T06:41:18;5.57;;;2.23;;
7160;SDS011;3622;53.576;9.978;2022-07-05T06:43:44;2.80;;;2.10;;
7160;SDS011;3622;53.576;9.978;2022-07-05T06:46:10;2.57;;;2.13;;
7160;SDS011;3622;53.576;9.978;2022-07-05T06:48:36;4.47;;;1.97;;
7160;SDS011;3622;53.576;9.978;2022-07-05T06:51:02;1.97;;;1.83;;
7160;SDS011;3622;53.576;9.978;2022-07-05T06:53:28;5.80;;;4.80;;
7160;SDS011;3622;53.576;9.978;2022-07-05T06:55:54;3.77;;;2.20;;
7160;SDS011;3622;53.576;9.978;2022-07-05T06:58:20;2.27;;;2.07;;
7160;SDS011;3622;53.576;9.978;2022-07-05T07:00:46;3.33;;;3.17;;
7160;SDS011;3622;53.576;9.978;2022-07-05T07:03:12;2.20;;;2.03;;
7160;SDS011;3622;53.576;9.978;2022-07-05T07:05:38;5.33;;;2.43;;
7160;SDS011;3622;53.576;9.978;2022-07-05T07:08:07;1.97;;;1.60;;
7160;SDS011;3622;53.576;9.978;2022-07-05T07:10:52;2.57;;;1.77;;
7160;SDS011;3622;53.576;9.978;2022-07-05T07:13:18;2.63;;;1.60;;
7160;SDS011;3622;53.576;9.978;2022-07-05T07:15:44;2.93;;;1.33;;
7160;SDS011;3622;53.576;9.978;2022-07-05T07:18:13;2.50;;;1.50;;
7160;SDS011;3622;53.576;9.978;2022-07-05T07:20:40;3.30;;;1.20;;
7160;SDS011;3622;53.576;9.978;2022-07-05T07:23:06;1.53;;;1.43;;
7160;SDS011;3622;53.576;9.978;2022-07-05T07:25:32;1.40;;;1.30;;
7160;SDS011;3622;53.576;9.978;2022-07-05T07:27:58;2.10;;;1.53;;
7160;SDS011;3622;53.576;9.978;2022-07-05T07:30:25;4.60;;;1.50;;
7160;SDS011;3622;53.576;9.978;2022-07-05T07:32:51;3.23;;;1.53;;
7160;SDS011;3622;53.576;9.978;2022-07-05T07:35:17;2.40;;;1.30;;
7160;SDS011;3622;53.576;9.978;2022-07-05T07:37:43;1.70;;;1.50;;
7160;SDS011;3622;53.576;9.978;2022-07-05T07:40:09;2.40;;;1.37;;
7160;SDS011;3622;53.576;9.978;2022-07-05T07:42:35;4.20;;;1.70;;
7160;SDS011;3622;53.576;9.978;2022-07-05T07:45:02;1.57;;;1.40;;
7160;SDS011;3622;53.576;9.978;2022-07-05T07:47:29;2.60;;;1.50;;
7160;SDS011;3622;53.576;9.978;2022-07-05T07:49:55;1.70;;;1.20;;
7160;SDS011;3622;53.576;9.978;2022-07-05T07:52:21;4.03;;;1.30;;
7160;SDS011;3622;53.576;9.978;2022-07-05T07:54:47;2.10;;;1.40;;
7160;SDS011;3622;53.576;9.978;2022-07-05T07:57:13;2.57;;;1.37;;
7160;SDS011;3622;53.576;9.978;2022-07-05T07:59:39;3.27;;;2.13;;
7160;SDS011;3622;53.576;9.978;2022-07-05T08:02:06;1.50;;;1.40;;
7160;SDS011;3622;53.576;9.978;2022-07-05T08:04:32;2.87;;;1.20;;
7160;SDS011;3622;53.576;9.978;2022-07-05T08:06:58;2.30;;;1.53;;
7160;SDS011;3622;53.576;9.978;2022-07-05T08:09:24;1.70;;;1.17;;
7160;SDS011;3622;53.576;9.978;2022-07-05T08:11:50;1.83;;;1.00;;
7160;SDS011;3622;53.576;9.978;2022-07-05T08:14:16;1.70;;;1.53;;
7160;SDS011;3622;53.576;9.978;2022-07-05T08:16:43;2.40;;;1.20;;
7160;SDS011;3622;53.576;9.978;2022-07-05T08:19:09;1.33;;;1.13;;
7160;SDS011;3622;53.576;9.978;2022-07-05T08:21:54;2.10;;;1.97;;
7160;SDS011;3622;53.576;9.978;2022-07-05T08:24:20;1.77;;;1.30;;
7160;SDS011;3622;53.576;9.978;2022-07-05T08:26:46;5.83;;;1.13;;
7160;SDS011;3622;53.576;9.978;2022-07-05T08:29:12;2.93;;;1.43;;
7160;SDS011;3622;53.576;9.978;2022-07-05T08:31:40;3.73;;;0.93;;
7160;SDS011;3622;53.576;9.978;2022-07-05T08:34:06;2.70;;;0.90;;
7160;SDS011;3622;53.576;9.978;2022-07-05T08:36:32;4.10;;;1.67;;
7160;SDS011;3622;53.576;9.978;2022-07-05T08:38:58;1.00;;;0.80;;
7160;SDS011;3622;53.576;9.978;2022-07-05T08:41:24;1.27;;;0.90;;
7160;SDS011;3622;53.576;9.978;2022-07-05T08:43:50;2.50;;;1.87;;
7160;SDS011;3622;53.576;9.978;2022-07-05T08:46:17;0.90;;;0.67;;
7160;SDS011;3622;53.576;9.978;2022-07-05T08:48:44;2.10;;;0.90;;
7160;SDS011;3622;53.576;9.978;2022-07-05T08:51:17;2.23;;;1.83;;
7160;SDS011;3622;53.576;9.978;2022-07-05T08:53:43;1.57;;;1.07;;
7160;SDS011;3622;53.576;9.978;2022-07-05T08:56:10;1.77;;;0.60;;
7160;SDS011;3622;53.576;9.978;2022-07-05T08:58:37;1.00;;;0.80;;
7160;SDS011;3622;53.576;9.978;2022-07-05T09:01:04;1.03;;;0.80;;
7160;SDS011;3622;53.576;9.978;2022-07-05T09:03:33;2.93;;;0.93;;
7160;SDS011;3622;53.576;9.978;2022-07-05T09:06:02;1.10;;;0.80;;
7160;SDS011;3622;53.576;9.978;2022-07-05T09:08:31;0.90;;;0.67;;
7160;SDS011;3622;53.576;9.978;2022-07-05T09:11:04;1.10;;;0.80;;
7160;SDS011;3622;53.576;9.978;2022-07-05T09:13:34;0.90;;;0.50;;
7160;SDS011;3622;53.576;9.978;2022-07-05T09:16:00;2.07;;;0.63;;
7160;SDS011;3622;53.576;9.978;2022-07-05T09:18:42;1.10;;;0.80;;
7160;SDS011;3622;53.576;9.978;2022-07-05T09:21:24;2.60;;;2.50;;
7160;SDS011;3622;53.576;9.978;2022-07-05T09:26:41;1.23;;;1.13;;
7160;SDS011;3622;53.576;9.978;2022-07-05T09:29:12;1.30;;;0.77;;
7160;SDS011;3622;53.576;9.978;2022-07-05T09:31:39;2.10;;;0.90;;
7160;SDS011;3622;53.576;9.978;2022-07-05T09:34:06;2.03;;;0.60;;
7160;SDS011;3622;53.576;9.978;2022-07-05T09:44:43;2.00;;;0.80;;
7160;SDS011;3622;53.576;9.978;2022-07-05T09:47:10;1.03;;;0.70;;
7160;SDS011;3622;53.576;9.978;2022-07-05T09:49:57;2.03;;;0.70;;
7160;SDS011;3622;53.576;9.978;2022-07-05T09:52:35;2.03;;;0.63;;
7160;SDS011;3622;53.576;9.978;2022-07-05T09:55:05;2.17;;;0.60;;
7160;SDS011;3622;53.576;9.978;2022-07-05T09:57:32;1.00;;;0.60;;
7160;SDS011;3622;53.576;9.978;2022-07-05T10:00:05;1.40;;;0.60;;
7160;SDS011;3622;53.576;9.978;2022-07-05T10:02:38;0.90;;;0.60;;
7160;SDS011;3622;53.576;9.978;2022-07-05T10:05:07;1.73;;;0.90;;
7160;SDS011;3622;53.576;9.978;2022-07-05T10:07:34;1.10;;;0.60;;
7160;SDS011;3622;53.576;9.978;2022-07-05T10:10:02;1.73;;;0.70;;
7160;SDS011;3622;53.576;9.978;2022-07-05T10:12:28;2.13;;;0.67;;
7160;SDS011;3622;53.576;9.978;2022-07-05T10:14:55;1.10;;;0.97;;
7160;SDS011;3622;53.576;9.978;2022-07-05T10:17:23;1.07;;;0.97;;
7160;SDS011;3622;53.576;9.978;2022-07-05T10:19:52;0.90;;;0.80;;
7160;SDS011;3622;53.576;9.978;2022-07-05T10:22:18;2.57;;;0.80;;
7160;SDS011;3622;53.576;9.978;2022-07-05T10:24:44;1.10;;;0.70;;
7160;SDS011;3622;53.576;9.978;2022-07-05T10:27:11;1.73;;;1.00;;
7160;SDS011;3622;53.576;9.978;2022-07-05T10:29:38;4.10;;;0.93;;
7160;SDS011;3622;53.576;9.978;2022-07-05T10:32:05;1.50;;;0.80;;
7160;SDS011;3622;53.576;9.978;2022-07-05T10:34:32;5.07;;;0.70;;
7160;SDS011;3622;53.576;9.978;2022-07-05T10:36:58;1.53;;;0.60;;
7160;SDS011;3622;53.576;9.978;2022-07-05T10:39:24;6.63;;;0.70;;
7160;SDS011;3622;53.576;9.978;2022-07-05T10:41:51;0.90;;;0.70;;
7160;SDS011;3622;53.576;9.978;2022-07-05T10:44:29;1.57;;;1.03;;
7160;SDS011;3622;53.576;9.978;2022-07-05T10:47:09;0.90;;;0.70;;
7160;SDS011;3622;53.576;9.978;2022-07-05T10:49:38;2.10;;;0.60;;
7160;SDS011;3622;53.576;9.978;2022-07-05T10:52:05;2.03;;;1.50;;
7160;SDS011;3622;53.576;9.978;2022-07-05T10:57:32;2.00;;;0.80;;
7160;SDS011;3622;53.576;9.978;2022-07-05T11:00:04;3.23;;;1.47;;
7160;SDS011;3622;53.576;9.978;2022-07-05T11:02:31;2.07;;;1.00;;
7160;SDS011;3622;53.576;9.978;2022-07-05T11:04:57;3.57;;;1.00;;
7160;SDS011;3622;53.576;9.978;2022-07-05T11:10:08;1.10;;;0.47;;
7160;SDS011;3622;53.576;9.978;2022-07-05T11:12:37;1.00;;;0.83;;
7160;SDS011;3622;53.576;9.978;2022-07-05T11:15:06;0.90;;;0.70;;
7160;SDS011;3622;53.576;9.978;2022-07-05T11:17:36;1.57;;;0.70;;
7160;SDS011;3622;53.576;9.978;2022-07-05T11:20:14;0.90;;;0.60;;
7160;SDS011;3622;53.576;9.978;2022-07-05T11:22:41;1.00;;;0.60;;
7160;SDS011;3622;53.576;9.978;2022-07-05T11:25:27;5.13;;;0.60;;
7160;SDS011;3622;53.576;9.978;2022-07-05T11:30:26;2.43;;;0.90;;
7160;SDS011;3622;53.576;9.978;2022-07-05T11:32:53;2.67;;;1.13;;
7160;SDS011;3622;53.576;9.978;2022-07-05T11:35:19;1.73;;;1.07;;
7160;SDS011;3622;53.576;9.978;2022-07-05T11:38:04;2.00;;;0.70;;
7160;SDS011;3622;53.576;9.978;2022-07-05T11:40:32;0.90;;;0.70;;
7160;SDS011;3622;53.576;9.978;2022-07-05T11:42:59;1.30;;;1.20;;
7160;SDS011;3622;53.576;9.978;2022-07-05T11:45:27;2.30;;;0.70;;
7160;SDS011;3622;53.576;9.978;2022-07-05T11:47:54;2.47;;;0.70;;
7160;SDS011;3622;53.576;9.978;2022-07-05T11:50:27;1.83;;;0.87;;
7160;SDS011;3622;53.576;9.978;2022-07-05T11:52:53;1.67;;;1.20;;
7160;SDS011;3622;53.576;9.978;2022-07-05T11:55:19;2.10;;;0.90;;
7160;SDS011;3622;53.576;9.978;2022-07-05T11:57:49;1.90;;;0.67;;
7160;SDS011;3622;53.576;9.978;2022-07-05T12:00:24;2.47;;;0.83;;
7160;SDS011;3622;53.576;9.978;2022-07-05T12:02:51;1.60;;;1.50;;
7160;SDS011;3622;53.576;9.978;2022-07-05T12:05:17;1.20;;;0.70;;
7160;SDS011;3622;53.576;9.978;2022-07-05T12:07:48;2.90;;;0.90;;
7160;SDS011;3622;53.576;9.978;2022-07-05T12:10:14;5.50;;;0.93;;
7160;SDS011;3622;53.576;9.978;2022-07-05T12:13:05;0.90;;;0.73;;
7160;SDS011;3622;53.576;9.978;2022-07-05T12:15:31;1.40;;;1.07;;
7160;SDS011;3622;53.576;9.978;2022-07-05T12:17:59;2.57;;;2.30;;
7160;SDS011;3622;53.576;9.978;2022-07-05T12:20:28;1.10;;;0.80;;
7160;SDS011;3622;53.576;9.978;2022-07-05T12:22:54;1.20;;;0.80;;
7160;SDS011;3622;53.576;9.978;2022-07-05T12:25:22;1.63;;;0.87;;
7160;SDS011;3622;53.576;9.978;2022-07-05T12:27:50;4.20;;;0.90;;
7160;SDS011;3622;53.576;9.978;2022-07-05T12:30:16;1.30;;;1.10;;
7160;SDS011;3622;53.576;9.978;2022-07-05T12:35:27;1.77;;;0.97;;
7160;SDS011;3622;53.576;9.978;2022-07-05T12:37:55;1.30;;;1.10;;
7160;SDS011;3622;53.576;9.978;2022-07-05T12:40:22;1.53;;;0.90;;
7160;SDS011;3622;53.576;9.978;2022-07-05T12:42:59;1.40;;;1.30;;
7160;SDS011;3622;53.576;9.978;2022-07-05T12:45:25;5.67;;;1.67;;
7160;SDS011;3622;53.576;9.978;2022-07-05T12:47:52;1.10;;;1.00;;
7160;SDS011;3622;53.576;9.978;2022-07-05T12:50:28;2.90;;;1.30;;
7160;SDS011;3622;53.576;9.978;2022-07-05T12:55:20;1.13;;;0.90;;
7160;SDS011;3622;53.576;9.978;2022-07-05T12:58:05;3.00;;;0.90;;
7160;SDS011;3622;53.576;9.978;2022-07-05T13:00:31;1.30;;;1.20;;
7160;SDS011;3622;53.576;9.978;2022-07-05T13:02:57;4.53;;;0.97;;
7160;SDS011;3622;53.576;9.978;2022-07-05T13:05:24;1.20;;;1.10;;
7160;SDS011;3622;53.576;9.978;2022-07-05T13:07:50;2.10;;;1.00;;
7160;SDS011;3622;53.576;9.978;2022-07-05T13:10:17;1.77;;;1.10;;
7160;SDS011;3622;53.576;9.978;2022-07-05T13:12:44;1.17;;;0.93;;
7160;SDS011;3622;53.576;9.978;2022-07-05T13:15:10;5.87;;;1.00;;
7160;SDS011;3622;53.576;9.978;2022-07-05T13:17:37;4.47;;;1.60;;
7160;SDS011;3622;53.576;9.978;2022-07-05T13:20:03;1.37;;;1.20;;
7160;SDS011;3622;53.576;9.978;2022-07-05T13:22:29;3.73;;;0.93;;
7160;SDS011;3622;53.576;9.978;2022-07-05T13:24:55;2.10;;;1.17;;
7160;SDS011;3622;53.576;9.978;2022-07-05T13:27:21;1.03;;;0.80;;
7160;SDS011;3622;53.576;9.978;2022-07-05T13:29:47;1.77;;;0.90;;
7160;SDS011;3622;53.576;9.978;2022-07-05T13:32:14;1.30;;;0.80;;
7160;SDS011;3622;53.576;9.978;2022-07-05T13:34:46;4.23;;;1.50;;
7160;SDS011;3622;53.576;9.978;2022-07-05T13:37:13;2.80;;;1.00;;
7160;SDS011;3622;53.576;9.978;2022-07-05T13:39:39;1.97;;;1.20;;
7160;SDS011;3622;53.576;9.978;2022-07-05T13:42:05;4.03;;;1.40;;
7160;SDS011;3622;53.576;9.978;2022-07-05T13:44:32;2.70;;;1.30;;
7160;SDS011;3622;53.576;9.978;2022-07-05T13:46:58;2.23;;;1.27;;
7160;SDS011;3622;53.576;9.978;2022-07-05T13:49:24;1.30;;;1.20;;
7160;SDS011;3622;53.576;9.978;2022-07-05T13:51:50;1.37;;;1.10;;
7160;SDS011;3622;53.576;9.978;2022-07-05T13:54:16;1.77;;;1.10;;
7160;SDS011;3622;53.576;9.978;2022-07-05T13:56:42;1.10;;;0.80;;
7160;SDS011;3622;53.576;9.978;2022-07-05T13:59:08;1.07;;;0.97;;
7160;SDS011;3622;53.576;9.978;2022-07-05T14:01:34;1.30;;;0.90;;
7160;SDS011;3622;53.576;9.978;2022-07-05T14:04:00;1.63;;;0.80;;
7160;SDS011;3622;53.576;9.978;2022-07-05T14:06:27;3.93;;;1.17;;
7160;SDS011;3622;53.576;9.978;2022-07-05T14:08:53;3.33;;;1.30;;
7160;SDS011;3622;53.576;9.978;2022-07-05T14:11:19;2.33;;;1.47;;
7160;SDS011;3622;53.576;9.978;2022-07-05T14:13:45;9.17;;;1.20;;
7160;SDS011;3622;53.576;9.978;2022-07-05T14:16:11;3.90;;;1.30;;
7160;SDS011;3622;53.576;9.978;2022-07-05T14:18:37;1.47;;;1.13;;
7160;SDS011;3622;53.576;9.978;2022-07-05T14:21:03;2.20;;;1.63;;
7160;SDS011;3622;53.576;9.978;2022-07-05T14:23:29;2.10;;;0.90;;
7160;SDS011;3622;53.576;9.978;2022-07-05T14:25:58;1.20;;;1.10;;
7160;SDS011;3622;53.576;9.978;2022-07-05T14:28:26;1.27;;;0.93;;
7160;SDS011;3622;53.576;9.978;2022-07-05T14:30:52;2.07;;;1.10;;
7160;SDS011;3622;53.576;9.978;2022-07-05T14:33:18;2.10;;;1.20;;
7160;SDS011;3622;53.576;9.978;2022-07-05T14:35:45;2.23;;;1.10;;
7160;SDS011;3622;53.576;9.978;2022-07-05T14:38:11;1.47;;;1.37;;
7160;SDS011;3622;53.576;9.978;2022-07-05T14:40:37;1.93;;;1.10;;
7160;SDS011;3622;53.576;9.978;2022-07-05T14:43:03;1.77;;;1.00;;
7160;SDS011;3622;53.576;9.978;2022-07-05T14:45:29;1.10;;;1.00;;
7160;SDS011;3622;53.576;9.978;2022-07-05T14:47:55;1.87;;;1.00;;
7160;SDS011;3622;53.576;9.978;2022-07-05T14:50:21;1.40;;;1.30;;
7160;SDS011;3622;53.576;9.978;2022-07-05T14:52:48;4.73;;;1.50;;
7160;SDS011;3622;53.576;9.978;2022-07-05T14:55:15;2.07;;;1.60;;
7160;SDS011;3622;53.576;9.978;2022-07-05T14:57:41;1.10;;;0.90;;
7160;SDS011;3622;53.576;9.978;2022-07-05T15:00:08;1.73;;;0.83;;
7160;SDS011;3622;53.576;9.978;2022-07-05T15:02:35;1.83;;;1.20;;
7160;SDS011;3622;53.576;9.978;2022-07-05T15:05:01;1.10;;;0.83;;
7160;SDS011;3622;53.576;9.978;2022-07-05T15:07:27;0.97;;;0.87;;
7160;SDS011;3622;53.576;9.978;2022-07-05T15:09:53;2.60;;;1.80;;
7160;SDS011;3622;53.576;9.978;2022-07-05T15:12:19;4.13;;;1.90;;
7160;SDS011;3622;53.576;9.978;2022-07-05T15:14:45;7.23;;;1.30;;
7160;SDS011;3622;53.576;9.978;2022-07-05T15:17:11;2.70;;;1.40;;
7160;SDS011;3622;53.576;9.978;2022-07-05T15:19:37;5.73;;;1.70;;
7160;SDS011;3622;53.576;9.978;2022-07-05T15:22:07;4.50;;;1.23;;
7160;SDS011;3622;53.576;9.978;2022-07-05T15:24:33;2.07;;;1.47;;
7160;SDS011;3622;53.576;9.978;2022-07-05T15:26:59;2.53;;;1.40;;
7160;SDS011;3622;53.576;9.978;2022-07-05T15:29:25;1.73;;;1.60;;
7160;SDS011;3622;53.576;9.978;2022-07-05T15:31:53;1.93;;;1.47;;
7160;SDS011;3622;53.576;9.978;2022-07-05T15:34:19;1.63;;;0.97;;
7160;SDS011;3622;53.576;9.978;2022-07-05T15:36:46;1.20;;;1.00;;
7160;SDS011;3622;53.576;9.978;2022-07-05T15:39:11;3.77;;;1.83;;
7160;SDS011;3622;53.576;9.978;2022-07-05T15:41:38;2.50;;;1.10;;